PVU weather

Provo Municipal Airport
Provo, Utah, United States

Public forecast

Using degrees Fahrenheit for public forecast. Weather courtesy of forecast.io.

METAR (pilot weather report)

Retrieved 2019/07/20 18:56 UTC (53 minutes ago):

KPVU 201856Z 11004KT 10SM FEW180 31/01 A3002 RMK AO2 SLP099 T03110011

TAF (pilot weather forecast)

Retrieved 2019/07/20 18:27 UTC (1 hour ago):

TAF KPVU 201725Z 2018/2118 29007KT P6SM SKC FM210300 14005KT P6SM SKC